createdAt,value
2023-05-17T00:02:24.280Z,92.39
2023-05-17T00:04:53.419Z,92.34
2023-05-17T00:07:21.008Z,92.35
2023-05-17T00:09:48.742Z,92.36
2023-05-17T00:12:16.412Z,92.36
2023-05-17T00:14:43.869Z,92.44
2023-05-17T00:17:11.581Z,92.46
2023-05-17T00:19:39.054Z,92.40
2023-05-17T00:22:06.706Z,92.40
2023-05-17T00:24:34.357Z,92.38
2023-05-17T00:27:01.882Z,92.45
2023-05-17T00:29:29.741Z,92.45
2023-05-17T00:31:57.263Z,92.49
2023-05-17T00:34:24.800Z,92.37
2023-05-17T00:36:52.274Z,92.37
2023-05-17T00:39:19.764Z,92.38
2023-05-17T00:41:47.253Z,92.32
2023-05-17T00:44:14.900Z,92.32
2023-05-17T00:46:43.217Z,92.16
2023-05-17T00:49:13.275Z,91.92
2023-05-17T00:51:41.262Z,91.88
2023-05-17T00:54:11.028Z,91.89
2023-05-17T00:56:39.375Z,91.92
2023-05-17T00:59:07.236Z,92.03
2023-05-17T01:01:40.007Z,92.06
2023-05-17T01:04:08.669Z,92.13
2023-05-17T01:06:37.337Z,92.17
2023-05-17T01:09:08.438Z,92.22
2023-05-17T01:12:03.577Z,92.14
2023-05-17T01:15:08.763Z,92.21
2023-05-17T01:18:28.585Z,92.16
2023-05-17T01:21:02.096Z,92.16
2023-05-17T01:23:45.949Z,92.15
2023-05-17T01:26:24.580Z,92.15
2023-05-17T01:28:56.447Z,92.14
2023-05-17T01:31:26.678Z,92.08
2023-05-17T01:33:59.270Z,92.08
2023-05-17T01:36:29.412Z,91.98
2023-05-17T01:38:56.980Z,91.95
2023-05-17T01:41:51.404Z,91.90
2023-05-17T01:44:33.482Z,91.88
2023-05-17T01:47:13.992Z,91.82
2023-05-17T01:49:53.065Z,91.72
2023-05-17T01:52:42.606Z,91.92
2023-05-17T01:55:25.045Z,92.08
2023-05-17T01:57:56.202Z,92.04
2023-05-17T02:00:26.832Z,92.20
2023-05-17T02:02:54.617Z,92.30
2023-05-17T02:05:22.340Z,92.35
2023-05-17T02:07:49.916Z,92.29
2023-05-17T02:10:18.522Z,92.27
2023-05-17T02:12:46.034Z,92.25
2023-05-17T02:15:13.982Z,92.25
2023-05-17T02:17:41.844Z,92.27
2023-05-17T02:20:12.022Z,92.41
2023-05-17T02:22:39.858Z,92.54
2023-05-17T02:25:08.438Z,92.77
2023-05-17T02:27:36.531Z,92.74
2023-05-17T02:30:04.894Z,92.56
2023-05-17T02:32:33.129Z,92.52
2023-05-17T02:35:00.893Z,92.84
2023-05-17T02:37:28.578Z,92.89
2023-05-17T02:39:56.153Z,92.84
2023-05-17T02:42:23.744Z,92.96
2023-05-17T02:44:53.085Z,92.93
2023-05-17T02:47:23.721Z,92.61
2023-05-17T02:49:51.381Z,92.70
2023-05-17T02:52:19.248Z,92.62
2023-05-17T02:54:47.960Z,92.81
2023-05-17T02:57:15.607Z,92.58
2023-05-17T02:59:43.175Z,92.34
2023-05-17T03:02:10.725Z,92.43
2023-05-17T03:04:38.502Z,92.57
2023-05-17T03:07:07.291Z,92.66
2023-05-17T03:09:36.320Z,92.58
2023-05-17T03:12:04.545Z,92.57
2023-05-17T03:14:34.375Z,92.68
2023-05-17T03:17:02.559Z,92.91
2023-05-17T03:19:33.179Z,93.35
2023-05-17T03:22:00.936Z,93.62
2023-05-17T03:24:29.018Z,93.48
2023-05-17T03:26:56.647Z,93.12
2023-05-17T03:29:24.169Z,92.86
2023-05-17T03:31:51.935Z,92.83
2023-05-17T03:34:19.999Z,92.91
2023-05-17T03:36:48.278Z,93.16
2023-05-17T03:39:15.920Z,93.30
2023-05-17T03:41:43.892Z,93.36
2023-05-17T03:44:11.810Z,93.47
2023-05-17T03:46:39.541Z,93.59
2023-05-17T03:49:07.168Z,93.77
2023-05-17T03:51:38.513Z,93.37
2023-05-17T03:54:06.420Z,93.23
2023-05-17T03:56:33.996Z,93.23
2023-05-17T03:59:01.599Z,93.14
2023-05-17T04:01:29.135Z,93.12
2023-05-17T04:03:56.708Z,93.20
2023-05-17T04:06:24.588Z,93.32
2023-05-17T04:08:55.068Z,93.26
2023-05-17T04:11:26.634Z,93.39
2023-05-17T04:13:56.890Z,93.43
2023-05-17T04:16:25.051Z,93.28
2023-05-17T04:18:53.710Z,94.61
2023-05-17T04:21:21.463Z,95.66
2023-05-17T04:23:51.038Z,94.94
2023-05-17T04:26:19.439Z,91.77
2023-05-17T04:28:47.101Z,89.86
2023-05-17T04:31:17.422Z,83.25
2023-05-17T04:33:46.547Z,76.18
2023-05-17T04:36:14.035Z,70.36
2023-05-17T04:38:42.720Z,65.07
2023-05-17T04:41:13.635Z,62.56
2023-05-17T04:43:42.092Z,61.19
2023-05-17T04:46:16.037Z,60.84
2023-05-17T04:48:44.593Z,58.13
2023-05-17T04:51:12.205Z,56.26
2023-05-17T04:53:40.569Z,54.54
2023-05-17T04:56:12.166Z,52.01
2023-05-17T04:58:39.791Z,48.75
2023-05-17T05:01:07.730Z,47.34
2023-05-17T05:03:36.841Z,45.62
2023-05-17T05:06:07.316Z,44.73
2023-05-17T05:08:35.017Z,42.54
2023-05-17T05:11:03.175Z,41.21
2023-05-17T05:13:32.211Z,40.47
2023-05-17T05:16:00.156Z,39.29
2023-05-17T05:18:28.011Z,38.12
2023-05-17T05:20:56.879Z,38.60
2023-05-17T05:23:25.487Z,37.62
2023-05-17T05:25:53.239Z,38.22
2023-05-17T05:28:21.020Z,42.53
2023-05-17T05:30:49.694Z,41.36
2023-05-17T05:33:17.655Z,43.53
2023-05-17T05:35:47.341Z,42.22
2023-05-17T05:38:15.202Z,41.81
2023-05-17T05:40:42.897Z,40.25
2023-05-17T05:43:10.454Z,41.94
2023-05-17T05:45:37.829Z,42.13
2023-05-17T05:48:07.371Z,40.73
2023-05-17T05:50:35.883Z,38.68
2023-05-17T05:53:19.053Z,40.35
2023-05-17T05:55:54.322Z,40.29
2023-05-17T05:58:21.818Z,41.63
2023-05-17T06:00:50.247Z,41.74
2023-05-17T06:03:17.737Z,38.55
2023-05-17T06:05:45.435Z,38.13
2023-05-17T06:08:12.899Z,37.61
2023-05-17T06:10:40.466Z,35.16
2023-05-17T06:13:07.905Z,37.32
2023-05-17T06:15:35.812Z,36.95
2023-05-17T06:18:03.384Z,35.76
2023-05-17T06:20:31.198Z,35.92
2023-05-17T06:22:58.922Z,35.26
2023-05-17T06:25:26.437Z,33.91
2023-05-17T06:27:53.945Z,34.94
2023-05-17T06:30:21.863Z,31.81
2023-05-17T06:32:49.400Z,32.91
2023-05-17T06:35:16.971Z,35.19
2023-05-17T06:37:44.513Z,35.13
2023-05-17T06:40:16.438Z,32.87
2023-05-17T06:42:44.884Z,35.39
2023-05-17T06:45:14.379Z,35.10
2023-05-17T06:47:42.074Z,34.89
2023-05-17T06:50:09.926Z,35.07
2023-05-17T06:52:37.505Z,34.00
2023-05-17T06:55:05.890Z,33.28
2023-05-17T06:57:33.497Z,34.72
2023-05-17T07:00:01.073Z,33.10
2023-05-17T07:02:33.746Z,31.72
2023-05-17T07:05:02.355Z,30.56
2023-05-17T07:07:30.394Z,33.06
2023-05-17T07:09:57.905Z,31.95
2023-05-17T07:12:25.454Z,33.26
2023-05-17T07:14:53.169Z,32.11
2023-05-17T07:17:20.916Z,32.85
2023-05-17T07:19:51.140Z,34.44
2023-05-17T07:22:19.585Z,33.79
2023-05-17T07:24:48.258Z,31.59
2023-05-17T07:27:18.450Z,33.07
2023-05-17T07:29:46.042Z,34.58
2023-05-17T07:32:14.133Z,36.45
2023-05-17T07:34:41.939Z,38.38
2023-05-17T07:37:09.561Z,37.40
2023-05-17T07:39:37.110Z,37.67
2023-05-17T07:42:05.660Z,38.26
2023-05-17T07:44:33.462Z,40.82
2023-05-17T07:47:01.044Z,42.94
2023-05-17T07:49:28.985Z,42.55
2023-05-17T07:51:56.594Z,41.65
2023-05-17T07:54:26.978Z,43.07
2023-05-17T07:56:55.474Z,45.39
2023-05-17T07:59:24.294Z,48.69
2023-05-17T08:01:52.604Z,42.07
2023-05-17T08:04:20.301Z,46.03
2023-05-17T08:06:48.500Z,44.21
2023-05-17T08:09:17.910Z,46.10
2023-05-17T08:11:48.581Z,46.01
2023-05-17T08:14:17.360Z,42.64
2023-05-17T08:16:48.331Z,39.33
2023-05-17T08:19:18.613Z,34.82
2023-05-17T08:21:46.605Z,35.35
2023-05-17T08:24:14.209Z,34.32
2023-05-17T08:26:41.688Z,33.81
2023-05-17T08:29:09.116Z,31.66
2023-05-17T08:31:36.619Z,31.30
2023-05-17T08:34:04.419Z,31.77
2023-05-17T08:36:32.050Z,33.38
2023-05-17T08:38:59.883Z,31.68
2023-05-17T09:04:56.021Z,38.62
2023-05-17T09:07:23.856Z,39.10
2023-05-17T09:09:55.067Z,39.69
2023-05-17T09:34:19.748Z,40.81
2023-05-17T09:36:47.617Z,40.93
2023-05-17T09:39:15.756Z,43.35
2023-05-17T09:41:48.793Z,40.77
2023-05-17T09:44:17.146Z,42.21
2023-05-17T09:46:50.130Z,42.06
2023-05-17T09:51:34.760Z,38.62
2023-05-17T09:56:35.353Z,39.01
2023-05-17T09:59:04.820Z,40.65
2023-05-17T10:01:32.550Z,38.99
2023-05-17T10:04:04.802Z,40.42
2023-05-17T10:06:46.099Z,37.67
2023-05-17T10:11:13.434Z,40.15
2023-05-17T10:13:49.853Z,40.06
2023-05-17T10:16:20.349Z,39.79
2023-05-17T10:18:49.536Z,41.36
2023-05-17T10:21:18.004Z,41.19
2023-05-17T10:23:47.489Z,40.26
2023-05-17T10:26:16.302Z,40.47
2023-05-17T10:28:46.515Z,39.46
2023-05-17T10:31:15.509Z,40.02
2023-05-17T10:33:46.571Z,38.13
2023-05-17T10:36:18.020Z,37.65
2023-05-17T10:38:46.229Z,34.54
2023-05-17T10:41:16.149Z,35.35
2023-05-17T10:45:48.524Z,38.29
2023-05-17T10:48:17.204Z,37.19
2023-05-17T10:50:54.376Z,37.92
2023-05-17T10:53:28.534Z,37.88
2023-05-17T10:55:56.664Z,39.88
2023-05-17T10:58:28.148Z,39.59
2023-05-17T11:02:10.613Z,41.05
2023-05-17T11:04:44.990Z,41.31
2023-05-17T11:07:25.980Z,40.83
2023-05-17T11:10:11.357Z,40.34
2023-05-17T11:12:44.681Z,42.07
2023-05-17T11:19:26.678Z,42.41
2023-05-17T11:21:55.747Z,42.89
2023-05-17T11:24:27.533Z,41.80
2023-05-17T11:26:57.989Z,40.74
2023-05-17T11:29:31.180Z,40.18
2023-05-17T11:31:58.975Z,40.57
2023-05-17T11:34:27.731Z,41.53
2023-05-17T11:36:56.580Z,42.30
2023-05-17T11:39:25.448Z,41.64
2023-05-17T11:41:56.040Z,41.36
2023-05-17T11:44:34.901Z,40.53
2023-05-17T11:47:09.823Z,41.51
2023-05-17T11:49:39.878Z,43.87
2023-05-17T11:52:08.696Z,43.45
2023-05-17T11:54:40.261Z,42.52
2023-05-17T11:57:09.692Z,42.88
2023-05-17T11:59:39.861Z,42.06
2023-05-17T12:02:07.943Z,43.46
2023-05-17T12:04:38.301Z,43.11
2023-05-17T12:07:10.578Z,41.62
2023-05-17T12:09:40.728Z,41.57
2023-05-17T12:12:08.820Z,40.82
2023-05-17T12:14:37.194Z,39.69
2023-05-17T12:17:09.785Z,40.30
2023-05-17T12:19:37.516Z,39.54
2023-05-17T12:22:12.791Z,40.63
2023-05-17T12:24:42.843Z,40.78
2023-05-17T12:27:10.863Z,39.73
2023-05-17T12:29:39.897Z,39.89
2023-05-17T12:32:10.616Z,38.25
2023-05-17T12:34:39.015Z,38.81
2023-05-17T12:37:10.687Z,38.95
2023-05-17T12:39:39.909Z,39.14
2023-05-17T12:42:09.034Z,41.31
2023-05-17T12:44:36.587Z,42.34
2023-05-17T12:47:04.195Z,42.08
2023-05-17T13:01:58.589Z,39.39
2023-05-17T13:04:36.856Z,42.53
2023-05-17T13:07:08.950Z,42.72
2023-05-17T13:09:50.330Z,41.61
2023-05-17T13:12:30.533Z,41.74
2023-05-17T13:14:58.419Z,41.27
2023-05-17T13:17:35.659Z,41.05
2023-05-17T13:20:05.344Z,41.20
2023-05-17T13:22:34.172Z,41.10
2023-05-17T13:25:03.346Z,41.99
2023-05-17T13:27:31.121Z,41.28
2023-05-17T13:29:58.817Z,41.06
2023-05-17T13:32:26.813Z,41.79
2023-05-17T13:34:54.466Z,42.03
2023-05-17T13:37:22.305Z,42.26
2023-05-17T13:39:49.881Z,43.49
2023-05-17T13:42:17.609Z,41.44
2023-05-17T13:44:45.167Z,41.47
2023-05-17T13:47:12.628Z,42.36
2023-05-17T13:49:40.557Z,42.59
2023-05-17T13:52:13.146Z,44.00
2023-05-17T13:54:40.875Z,45.47
2023-05-17T13:57:08.419Z,45.60
2023-05-17T13:59:36.170Z,45.40
2023-05-17T14:02:04.311Z,43.98
2023-05-17T14:04:32.379Z,45.27
2023-05-17T14:07:00.120Z,44.31
2023-05-17T14:09:30.592Z,43.94
2023-05-17T14:12:01.029Z,45.29
2023-05-17T14:14:30.101Z,44.59
2023-05-17T14:16:57.852Z,44.19
2023-05-17T14:19:25.836Z,44.45
2023-05-17T14:21:53.488Z,44.49
2023-05-17T14:24:21.263Z,44.22
2023-05-17T14:26:48.871Z,44.76
2023-05-17T14:29:17.889Z,46.10
2023-05-17T14:34:03.946Z,47.06
2023-05-17T14:37:18.644Z,48.00
2023-05-17T14:39:55.143Z,49.88
2023-05-17T14:42:33.250Z,51.49
2023-05-17T14:45:01.306Z,53.32
2023-05-17T14:47:29.018Z,54.58
2023-05-17T14:49:56.550Z,55.59
2023-05-17T14:52:24.046Z,57.15
2023-05-17T14:54:51.764Z,58.38
2023-05-17T14:57:21.305Z,59.15
2023-05-17T14:59:48.914Z,60.09
2023-05-17T15:02:16.378Z,60.06
2023-05-17T15:04:44.123Z,58.73
2023-05-17T15:07:11.921Z,60.77
2023-05-17T15:09:43.571Z,62.83
2023-05-17T15:12:14.136Z,64.64
2023-05-17T15:14:41.803Z,66.27
2023-05-17T15:17:09.603Z,67.79
2023-05-17T15:19:37.429Z,67.42
2023-05-17T15:22:05.168Z,68.18
2023-05-17T15:24:33.978Z,68.47
2023-05-17T15:27:01.757Z,70.17
2023-05-17T15:29:31.001Z,73.04
2023-05-17T15:31:59.286Z,75.00
2023-05-17T15:34:27.130Z,77.76
2023-05-17T15:36:58.343Z,80.23
2023-05-17T15:39:26.480Z,81.68
2023-05-17T15:41:53.962Z,82.94
2023-05-17T15:44:23.822Z,83.49
2023-05-17T15:46:51.434Z,83.64
2023-05-17T15:49:19.122Z,85.58
2023-05-17T15:51:47.158Z,86.91
2023-05-17T15:54:15.101Z,86.99
2023-05-17T15:56:42.770Z,87.52
2023-05-17T15:59:10.378Z,87.38
2023-05-17T16:01:40.189Z,87.73
2023-05-17T16:04:07.763Z,88.26
2023-05-17T16:06:36.777Z,88.98
2023-05-17T16:09:04.623Z,89.10
2023-05-17T16:11:32.399Z,89.57
2023-05-17T16:14:00.236Z,89.81
2023-05-17T16:16:27.797Z,90.27
2023-05-17T16:18:55.796Z,90.37
2023-05-17T16:21:23.431Z,90.28
2023-05-17T16:23:50.926Z,90.62
2023-05-17T16:26:18.878Z,90.87
2023-05-17T16:28:46.605Z,91.03
2023-05-17T16:31:14.354Z,90.83
2023-05-17T16:33:42.433Z,91.04
2023-05-17T16:36:12.403Z,91.05
2023-05-17T16:38:40.074Z,91.04
2023-05-17T16:41:08.092Z,91.18
2023-05-17T16:43:35.708Z,91.14
2023-05-17T16:46:03.238Z,91.16
2023-05-17T16:48:31.137Z,91.42
2023-05-17T16:50:59.753Z,91.59
2023-05-17T16:53:28.583Z,91.73
2023-05-17T16:55:56.423Z,91.72
2023-05-17T16:58:24.030Z,91.69
2023-05-17T17:00:52.028Z,91.73
2023-05-17T17:03:19.601Z,91.72
2023-05-17T17:05:47.428Z,91.71
2023-05-17T17:08:15.048Z,91.71
2023-05-17T17:10:42.593Z,91.83
2023-05-17T17:13:10.650Z,91.87
2023-05-17T17:15:38.182Z,91.93
2023-05-17T17:18:05.976Z,92.04
2023-05-17T17:20:33.774Z,92.29
2023-05-17T17:23:01.303Z,92.44
2023-05-17T17:25:29.167Z,92.50
2023-05-17T17:27:56.757Z,92.50
2023-05-17T17:30:24.436Z,92.52
2023-05-17T17:32:52.306Z,92.39
2023-05-17T17:35:20.006Z,92.40
2023-05-17T17:37:47.672Z,92.41
2023-05-17T17:40:15.827Z,92.27
2023-05-17T17:42:43.338Z,92.32
2023-05-17T17:45:11.026Z,92.45
2023-05-17T17:47:38.548Z,92.61
2023-05-17T17:50:07.028Z,92.78
2023-05-17T17:52:34.719Z,92.92
2023-05-17T17:55:02.292Z,93.04
2023-05-17T17:57:32.008Z,93.07
2023-05-17T17:59:59.966Z,93.18
2023-05-17T18:02:27.535Z,93.25
2023-05-17T18:04:55.332Z,93.25
2023-05-17T18:07:23.006Z,93.27
2023-05-17T18:09:51.066Z,93.22
2023-05-17T18:12:18.872Z,93.21
2023-05-17T18:14:46.435Z,93.16
2023-05-17T18:17:14.027Z,93.15
2023-05-17T18:19:41.512Z,93.17
2023-05-17T18:22:09.000Z,93.17
2023-05-17T18:24:36.796Z,93.16
2023-05-17T18:27:04.702Z,93.21
2023-05-17T18:29:32.364Z,93.12
2023-05-17T18:32:01.662Z,93.11
2023-05-17T18:34:29.190Z,93.04
2023-05-17T18:36:56.683Z,93.00
2023-05-17T18:39:24.174Z,93.01
2023-05-17T18:41:51.860Z,93.19
2023-05-17T18:44:20.136Z,93.17
2023-05-17T18:46:48.804Z,93.21
2023-05-17T18:49:16.867Z,93.16
2023-05-17T18:51:44.452Z,93.16
2023-05-17T18:54:12.193Z,93.13
2023-05-17T18:56:39.883Z,93.18
2023-05-17T18:59:07.537Z,93.15
2023-05-17T19:01:35.451Z,93.19
2023-05-17T19:04:03.196Z,93.43
2023-05-17T19:06:31.850Z,93.50
2023-05-17T19:09:00.178Z,93.47
2023-05-17T19:11:30.616Z,93.38
2023-05-17T19:13:58.496Z,93.30
2023-05-17T19:16:26.413Z,93.38
2023-05-17T19:18:54.144Z,93.29
2023-05-17T19:21:22.260Z,93.22
2023-05-17T19:23:49.916Z,93.07
2023-05-17T19:26:21.691Z,92.87
2023-05-17T19:28:49.260Z,92.67
2023-05-17T19:31:17.203Z,92.57
2023-05-17T19:33:45.301Z,92.57
2023-05-17T19:36:13.106Z,92.54
2023-05-17T19:38:41.268Z,92.52
2023-05-17T19:41:09.532Z,92.64
2023-05-17T19:43:37.035Z,92.58
2023-05-17T19:46:09.302Z,92.57
2023-05-17T19:48:38.805Z,92.52
2023-05-17T19:51:06.648Z,92.48
2023-05-17T19:53:50.962Z,92.41
2023-05-17T19:56:19.097Z,92.26
2023-05-17T19:58:48.379Z,92.23
2023-05-17T20:01:16.136Z,92.18
2023-05-17T20:03:44.045Z,92.14
2023-05-17T20:06:14.314Z,92.14
2023-05-17T20:08:42.522Z,92.11
2023-05-17T20:11:10.942Z,92.11
2023-05-17T20:13:41.142Z,92.15
2023-05-17T20:16:12.993Z,92.10
2023-05-17T20:18:43.578Z,92.04
2023-05-17T20:21:15.367Z,92.01
2023-05-17T20:23:43.116Z,92.05
2023-05-17T20:26:16.703Z,92.01
2023-05-17T20:28:45.742Z,91.94
2023-05-17T20:31:13.501Z,91.94
2023-05-17T20:33:41.323Z,92.00
2023-05-17T20:36:11.772Z,92.03
2023-05-17T20:38:40.118Z,92.08
2023-05-17T20:41:08.536Z,92.07
2023-05-17T20:43:36.863Z,92.03
2023-05-17T20:46:09.943Z,92.00
2023-05-17T20:48:39.688Z,91.93
2023-05-17T20:51:07.533Z,91.94
2023-05-17T20:53:35.318Z,92.02
2023-05-17T20:56:03.296Z,92.19
2023-05-17T20:58:31.120Z,92.29
2023-05-17T21:01:01.167Z,92.39
2023-05-17T21:03:34.105Z,92.50
2023-05-17T21:06:02.403Z,92.61
2023-05-17T21:08:30.216Z,92.72
2023-05-17T21:10:57.689Z,92.79
2023-05-17T21:13:25.826Z,92.77
2023-05-17T21:15:57.130Z,92.87
2023-05-17T21:18:24.702Z,92.93
2023-05-17T21:20:53.228Z,92.90
2023-05-17T21:23:21.696Z,93.11
2023-05-17T21:25:49.299Z,93.16
2023-05-17T21:28:16.871Z,93.14
2023-05-17T21:30:44.461Z,93.26
2023-05-17T21:33:12.074Z,93.29
2023-05-17T21:35:39.600Z,93.29
2023-05-17T21:38:07.190Z,93.40
2023-05-17T21:40:34.631Z,93.40
2023-05-17T21:43:02.277Z,93.35
2023-05-17T21:45:30.173Z,93.34
2023-05-17T21:47:57.750Z,93.28
2023-05-17T21:50:25.844Z,93.32
2023-05-17T21:52:53.456Z,93.42
2023-05-17T21:55:21.014Z,93.51
2023-05-17T21:57:48.739Z,93.47
2023-05-17T22:00:16.732Z,93.48
2023-05-17T22:02:45.275Z,93.57
2023-05-17T22:05:13.863Z,93.53
2023-05-17T22:07:41.472Z,93.63
2023-05-17T22:10:10.324Z,93.75
2023-05-17T22:12:38.316Z,93.79
2023-05-17T22:15:07.101Z,93.83
2023-05-17T22:17:43.165Z,93.89
2023-05-17T22:20:23.655Z,93.79
2023-05-17T22:22:51.808Z,93.84
2023-05-17T22:25:19.391Z,93.81
2023-05-17T22:27:46.934Z,93.72
2023-05-17T22:30:14.471Z,93.77
2023-05-17T22:32:41.999Z,93.62
2023-05-17T22:35:09.673Z,93.62
2023-05-17T22:37:37.682Z,93.51
2023-05-17T22:40:06.641Z,93.39
2023-05-17T22:42:34.252Z,93.43
2023-05-17T22:45:01.969Z,93.44
2023-05-17T22:47:30.523Z,93.53
2023-05-17T22:50:00.843Z,93.56
2023-05-17T22:52:28.694Z,93.55
2023-05-17T22:54:56.346Z,93.51
2023-05-17T22:57:23.872Z,93.58
2023-05-17T22:59:51.496Z,93.52
2023-05-17T23:02:18.946Z,93.40
2023-05-17T23:04:46.480Z,93.51
2023-05-17T23:07:15.033Z,93.56
2023-05-17T23:09:42.489Z,93.63
2023-05-17T23:12:14.063Z,93.69
2023-05-17T23:14:41.924Z,93.65
2023-05-17T23:17:09.951Z,93.63
2023-05-17T23:19:37.615Z,93.54
2023-05-17T23:22:06.462Z,93.56
2023-05-17T23:24:38.686Z,93.62
2023-05-17T23:27:10.278Z,93.67
2023-05-17T23:29:41.363Z,93.66
2023-05-17T23:32:09.137Z,93.70
2023-05-17T23:34:36.780Z,93.88
2023-05-17T23:37:04.366Z,93.80
2023-05-17T23:39:31.896Z,93.85
2023-05-17T23:41:59.738Z,93.84
2023-05-17T23:44:27.208Z,93.96
2023-05-17T23:46:54.906Z,94.07
2023-05-17T23:49:25.773Z,94.09
2023-05-17T23:51:53.310Z,94.14
2023-05-17T23:54:22.208Z,94.17
2023-05-17T23:56:49.955Z,94.15
2023-05-17T23:59:17.449Z,94.28
